createdAt,value
2018-09-27T00:00:40.026Z,6.40
2018-09-27T00:03:08.473Z,6.50
2018-09-27T00:05:36.966Z,6.40
2018-09-27T00:08:05.498Z,6.40
2018-09-27T00:10:33.938Z,6.30
2018-09-27T00:13:02.357Z,6.30
2018-09-27T00:15:30.819Z,6.20
2018-09-27T00:17:59.290Z,6.20
2018-09-27T00:20:27.794Z,6.20
2018-09-27T00:22:56.218Z,6.10
2018-09-27T00:25:24.679Z,6.10
2018-09-27T00:27:53.090Z,6.10
2018-09-27T00:30:21.557Z,6.10
2018-09-27T00:32:49.990Z,6.10
2018-09-27T00:35:18.446Z,6.10
2018-09-27T00:37:46.867Z,6.10
2018-09-27T00:40:15.326Z,6.10
2018-09-27T00:42:43.812Z,6.10
2018-09-27T00:45:12.338Z,6.00
2018-09-27T00:47:40.868Z,6.00
2018-09-27T00:50:09.409Z,5.90
2018-09-27T00:52:37.877Z,5.90
2018-09-27T00:55:06.434Z,5.90
2018-09-27T00:57:35.062Z,5.90
2018-09-27T01:00:03.591Z,5.90
2018-09-27T01:02:32.108Z,5.90
2018-09-27T01:05:00.564Z,5.90
2018-09-27T01:07:29.167Z,5.90
2018-09-27T01:09:57.671Z,5.80
2018-09-27T01:12:26.187Z,5.60
2018-09-27T01:14:54.735Z,5.60
2018-09-27T01:17:23.247Z,5.60
2018-09-27T01:19:51.805Z,5.60
2018-09-27T01:22:20.317Z,5.60
2018-09-27T01:24:48.832Z,5.60
2018-09-27T01:27:17.353Z,5.60
2018-09-27T01:29:45.898Z,5.60
2018-09-27T01:32:14.541Z,5.60
2018-09-27T01:34:43.067Z,5.60
2018-09-27T01:37:11.577Z,5.60
2018-09-27T01:39:40.082Z,5.60
2018-09-27T01:42:08.623Z,5.50
2018-09-27T01:44:37.189Z,5.50
2018-09-27T01:47:05.766Z,5.50
2018-09-27T01:49:34.296Z,5.50
2018-09-27T01:52:02.834Z,5.50
2018-09-27T01:54:31.391Z,5.50
2018-09-27T01:56:59.896Z,5.50
2018-09-27T01:59:28.430Z,5.50
2018-09-27T02:01:56.947Z,5.50
2018-09-27T02:04:25.534Z,5.50
2018-09-27T02:06:54.061Z,5.50
2018-09-27T02:09:22.572Z,5.50
2018-09-27T02:11:51.111Z,5.50
2018-09-27T02:14:19.640Z,5.40
2018-09-27T02:16:48.258Z,5.40
2018-09-27T02:19:16.904Z,5.30
2018-09-27T02:21:45.450Z,5.30
2018-09-27T02:24:13.954Z,5.20
2018-09-27T02:26:42.510Z,5.20
2018-09-27T02:29:11.023Z,5.20
2018-09-27T02:31:39.575Z,5.20
2018-09-27T02:34:08.103Z,5.20
2018-09-27T02:36:36.670Z,5.20
2018-09-27T02:39:07.859Z,5.20
2018-09-27T02:41:36.443Z,5.20
2018-09-27T02:44:04.959Z,5.10
2018-09-27T02:46:33.539Z,5.10
2018-09-27T02:49:02.200Z,5.10
2018-09-27T02:51:30.721Z,5.10
2018-09-27T02:53:59.295Z,5.10
2018-09-27T02:56:27.827Z,5.10
2018-09-27T02:58:56.370Z,5.10
2018-09-27T03:01:24.949Z,5.10
2018-09-27T03:03:53.499Z,5.10
2018-09-27T03:06:22.026Z,5.00
2018-09-27T03:08:50.569Z,5.00
2018-09-27T03:11:19.075Z,5.00
2018-09-27T03:13:47.600Z,5.00
2018-09-27T03:16:16.153Z,5.00
2018-09-27T03:18:44.709Z,5.00
2018-09-27T03:21:13.319Z,5.00
2018-09-27T03:23:41.881Z,5.00
2018-09-27T03:26:10.415Z,4.90
2018-09-27T03:28:38.940Z,4.90
2018-09-27T03:31:07.630Z,4.90
2018-09-27T03:33:36.128Z,4.80
2018-09-27T03:36:04.692Z,4.80
2018-09-27T03:38:34.037Z,4.80
2018-09-27T03:41:02.585Z,4.80
2018-09-27T03:43:31.113Z,4.80
2018-09-27T03:45:59.643Z,4.70
2018-09-27T03:48:28.168Z,4.70
2018-09-27T03:50:56.687Z,4.70
2018-09-27T03:53:25.207Z,4.80
2018-09-27T03:55:53.754Z,4.80
2018-09-27T03:58:22.288Z,4.70
2018-09-27T04:00:50.839Z,4.70
2018-09-27T04:03:19.402Z,4.60
2018-09-27T04:05:47.889Z,4.60
2018-09-27T04:08:16.413Z,4.70
2018-09-27T04:10:44.927Z,4.70
2018-09-27T04:13:13.462Z,4.70
2018-09-27T04:15:42.028Z,4.60
2018-09-27T04:18:10.470Z,4.60
2018-09-27T04:20:45.514Z,4.60
2018-09-27T04:23:13.999Z,4.60
2018-09-27T04:25:42.475Z,4.50
2018-09-27T04:28:10.983Z,4.50
2018-09-27T04:30:39.500Z,4.40
2018-09-27T04:33:07.962Z,4.40
2018-09-27T04:35:36.475Z,4.40
2018-09-27T04:38:05.273Z,4.40
2018-09-27T04:40:33.775Z,4.40
2018-09-27T04:43:02.718Z,4.30
2018-09-27T04:45:31.211Z,4.30
2018-09-27T04:47:59.742Z,4.30
2018-09-27T04:50:28.259Z,4.30
2018-09-27T04:52:56.763Z,4.30
2018-09-27T04:55:25.239Z,4.30
2018-09-27T04:57:53.741Z,4.30
2018-09-27T05:00:22.205Z,4.30
2018-09-27T05:02:50.671Z,4.30
2018-09-27T05:05:19.178Z,4.30
2018-09-27T05:07:47.679Z,4.30
2018-09-27T05:10:16.243Z,4.20
2018-09-27T05:12:44.765Z,4.30
2018-09-27T05:15:13.300Z,4.30
2018-09-27T05:17:41.813Z,4.30
2018-09-27T05:20:10.351Z,4.20
2018-09-27T05:22:38.853Z,4.20
2018-09-27T05:25:07.363Z,4.20
2018-09-27T05:27:35.985Z,4.20
2018-09-27T05:30:04.491Z,4.30
2018-09-27T05:32:32.949Z,4.30
2018-09-27T05:35:01.503Z,4.20
2018-09-27T05:37:30.040Z,4.30
2018-09-27T05:39:58.550Z,4.20
2018-09-27T05:42:27.062Z,4.30
2018-09-27T05:44:55.534Z,4.30
2018-09-27T05:47:24.023Z,4.40
2018-09-27T05:49:52.561Z,4.50
2018-09-27T05:52:20.986Z,4.60
2018-09-27T05:54:49.527Z,4.60
2018-09-27T05:57:18.115Z,4.60
2018-09-27T05:59:46.609Z,4.60
2018-09-27T06:02:15.143Z,4.70
2018-09-27T06:04:43.727Z,4.80
2018-09-27T06:07:12.233Z,4.80
2018-09-27T06:09:40.809Z,4.90
2018-09-27T06:12:09.342Z,5.00
2018-09-27T06:14:37.863Z,5.10
2018-09-27T06:17:07.009Z,5.20
2018-09-27T06:19:35.594Z,5.30
2018-09-27T06:22:04.055Z,5.40
2018-09-27T06:24:32.594Z,5.50
2018-09-27T06:27:01.072Z,5.60
2018-09-27T06:29:29.548Z,5.70
2018-09-27T06:31:58.052Z,5.80
2018-09-27T06:34:26.528Z,5.90
2018-09-27T06:36:55.003Z,6.00
2018-09-27T06:39:23.470Z,6.10
2018-09-27T06:41:51.897Z,6.20
2018-09-27T06:44:20.351Z,6.20
2018-09-27T06:46:48.793Z,6.40
2018-09-27T06:49:17.263Z,6.50
2018-09-27T06:51:45.706Z,6.60
2018-09-27T06:54:14.169Z,6.70
2018-09-27T06:56:42.659Z,6.90
2018-09-27T06:59:11.142Z,7.10
2018-09-27T07:01:39.740Z,7.30
2018-09-27T07:04:08.157Z,7.50
2018-09-27T07:06:36.611Z,7.60
2018-09-27T07:09:08.254Z,7.70
2018-09-27T07:11:36.770Z,7.80
2018-09-27T07:14:05.224Z,8.00
2018-09-27T07:16:33.686Z,8.10
2018-09-27T07:19:02.121Z,8.20
2018-09-27T07:21:30.633Z,8.30
2018-09-27T07:23:59.100Z,8.40
2018-09-27T07:26:27.602Z,8.60
2018-09-27T07:28:56.030Z,8.70
2018-09-27T07:31:24.499Z,8.90
2018-09-27T07:33:52.922Z,9.00
2018-09-27T07:36:21.524Z,9.20
2018-09-27T07:38:50.002Z,9.30
2018-09-27T07:41:18.462Z,9.50
2018-09-27T07:43:46.917Z,9.70
2018-09-27T07:46:15.389Z,9.80
2018-09-27T07:48:43.835Z,10.00
2018-09-27T07:51:12.297Z,10.20
2018-09-27T07:53:40.722Z,10.40
2018-09-27T07:56:09.296Z,10.60
2018-09-27T07:58:37.745Z,10.80
2018-09-27T08:01:06.207Z,11.00
2018-09-27T08:03:34.647Z,11.20
2018-09-27T08:06:03.118Z,11.40
2018-09-27T08:08:31.626Z,11.50
2018-09-27T08:11:00.159Z,11.60
2018-09-27T08:13:28.565Z,11.70
2018-09-27T08:15:57.043Z,12.00
2018-09-27T08:18:25.501Z,12.20
2018-09-27T08:20:54.029Z,12.30
2018-09-27T08:23:22.435Z,12.70
2018-09-27T08:25:50.877Z,12.90
2018-09-27T08:28:19.286Z,13.30
2018-09-27T08:30:47.767Z,13.50
2018-09-27T08:33:16.193Z,13.80
2018-09-27T08:35:44.650Z,14.20
2018-09-27T08:38:13.099Z,14.40
2018-09-27T08:40:41.958Z,14.70
2018-09-27T08:43:10.770Z,14.50
2018-09-27T08:45:39.226Z,14.90
2018-09-27T08:48:07.638Z,15.30
2018-09-27T08:50:36.058Z,15.60
2018-09-27T08:53:04.511Z,16.20
2018-09-27T08:55:32.957Z,16.70
2018-09-27T08:58:01.560Z,16.80
2018-09-27T09:00:29.967Z,17.20
2018-09-27T09:02:58.407Z,17.60
2018-09-27T09:05:26.842Z,18.60
2018-09-27T09:07:55.290Z,19.30
2018-09-27T09:10:23.698Z,19.40
2018-09-27T09:12:52.137Z,19.60
2018-09-27T09:15:20.606Z,20.20
2018-09-27T09:17:49.089Z,20.60
2018-09-27T09:20:17.618Z,20.50
2018-09-27T09:22:46.090Z,20.80
2018-09-27T09:25:14.501Z,21.50
2018-09-27T09:27:43.009Z,21.90
2018-09-27T09:30:11.390Z,22.60
2018-09-27T09:32:39.829Z,22.90
2018-09-27T09:35:08.270Z,23.50
2018-09-27T09:37:36.721Z,23.80
2018-09-27T09:40:05.310Z,23.90
2018-09-27T09:42:33.757Z,21.60
2018-09-27T09:45:02.330Z,21.40
2018-09-27T09:47:30.842Z,21.20
2018-09-27T09:49:59.266Z,21.70
2018-09-27T09:52:27.762Z,22.70
2018-09-27T09:54:56.198Z,23.60
2018-09-27T09:57:24.739Z,24.40
2018-09-27T09:59:53.181Z,24.10
2018-09-27T10:02:21.684Z,24.50
2018-09-27T10:04:50.122Z,24.80
2018-09-27T10:07:18.558Z,25.10
2018-09-27T10:09:47.008Z,25.80
2018-09-27T10:12:15.433Z,24.90
2018-09-27T10:14:43.893Z,25.70
2018-09-27T10:17:12.393Z,25.60
2018-09-27T10:19:40.850Z,25.40
2018-09-27T10:22:09.344Z,26.10
2018-09-27T10:24:37.778Z,26.80
2018-09-27T10:27:06.250Z,26.60
2018-09-27T10:29:34.729Z,26.90
2018-09-27T10:32:03.209Z,27.30
2018-09-27T10:34:31.713Z,27.60
2018-09-27T10:37:00.227Z,27.40
2018-09-27T10:39:28.721Z,26.40
2018-09-27T10:41:57.163Z,25.60
2018-09-27T10:44:25.614Z,26.60
2018-09-27T10:46:54.034Z,27.80
2018-09-27T10:49:22.497Z,28.80
2018-09-27T10:51:50.930Z,28.30
2018-09-27T10:54:19.397Z,28.20
2018-09-27T10:56:47.853Z,27.40
2018-09-27T10:59:16.310Z,27.70
2018-09-27T11:01:44.737Z,26.60
2018-09-27T11:04:13.243Z,28.00
2018-09-27T11:06:41.661Z,27.00
2018-09-27T11:09:10.462Z,28.60
2018-09-27T11:11:39.067Z,29.40
2018-09-27T11:14:07.568Z,30.30
2018-09-27T11:16:36.070Z,31.30
2018-09-27T11:19:04.550Z,31.80
2018-09-27T11:21:33.040Z,29.80
2018-09-27T11:24:01.537Z,29.20
2018-09-27T11:26:29.973Z,29.20
2018-09-27T11:29:03.855Z,27.30
2018-09-27T11:31:37.661Z,26.20
2018-09-27T11:34:06.130Z,26.80
2018-09-27T11:36:34.562Z,27.00
2018-09-27T11:39:03.214Z,27.20
2018-09-27T11:41:31.664Z,27.40
2018-09-27T11:44:00.151Z,27.70
2018-09-27T11:46:28.586Z,27.10
2018-09-27T11:48:57.106Z,28.10
2018-09-27T11:51:25.482Z,28.70
2018-09-27T11:53:53.908Z,28.20
2018-09-27T11:56:22.368Z,28.60
2018-09-27T11:58:50.871Z,29.30
2018-09-27T12:01:19.314Z,29.70
2018-09-27T12:03:47.737Z,29.60
2018-09-27T12:06:18.810Z,28.20
2018-09-27T12:08:47.366Z,27.70
2018-09-27T12:11:15.845Z,26.70
2018-09-27T12:13:46.135Z,26.90
2018-09-27T12:16:15.171Z,28.00
2018-09-27T12:18:43.634Z,28.80
2018-09-27T12:21:12.734Z,29.60
2018-09-27T12:23:41.703Z,28.90
2018-09-27T12:26:10.169Z,28.80
2018-09-27T12:28:38.795Z,28.00
2018-09-27T12:31:07.526Z,28.60
2018-09-27T12:33:36.263Z,28.40
2018-09-27T12:36:05.004Z,29.00
2018-09-27T12:38:33.504Z,28.80
2018-09-27T12:41:01.894Z,29.10
2018-09-27T12:43:30.365Z,29.10
2018-09-27T12:45:58.916Z,29.00
2018-09-27T12:48:27.336Z,28.90
2018-09-27T12:50:55.910Z,29.90
2018-09-27T12:53:24.314Z,28.90
2018-09-27T12:55:52.788Z,28.30
2018-09-27T12:58:21.211Z,28.50
2018-09-27T13:00:49.665Z,28.90
2018-09-27T13:03:18.086Z,30.00
2018-09-27T13:05:46.579Z,29.40
2018-09-27T13:08:15.021Z,29.40
2018-09-27T13:10:43.538Z,28.90
2018-09-27T13:13:12.170Z,29.10
2018-09-27T13:15:40.514Z,30.20
2018-09-27T13:18:09.061Z,31.40
2018-09-27T13:20:37.592Z,31.60
2018-09-27T13:23:06.071Z,33.40
2018-09-27T13:25:34.512Z,32.80
2018-09-27T13:28:02.977Z,31.90
2018-09-27T13:30:31.462Z,30.30
2018-09-27T13:32:59.956Z,31.60
2018-09-27T13:35:28.415Z,33.20
2018-09-27T13:37:56.874Z,32.70
2018-09-27T13:40:25.366Z,33.00
2018-09-27T13:42:53.894Z,34.60
2018-09-27T13:45:22.350Z,34.90
2018-09-27T13:47:50.840Z,34.80
2018-09-27T13:50:19.286Z,33.30
2018-09-27T13:52:47.762Z,32.40
2018-09-27T13:55:16.224Z,31.70
2018-09-27T13:57:44.706Z,31.50
2018-09-27T14:00:13.156Z,32.20
2018-09-27T14:02:41.634Z,32.30
2018-09-27T14:05:10.082Z,32.20
2018-09-27T14:07:38.565Z,31.10
2018-09-27T14:10:07.058Z,31.20
2018-09-27T14:12:35.538Z,31.70
2018-09-27T14:15:04.043Z,31.90
2018-09-27T14:17:32.570Z,31.60
2018-09-27T14:20:01.025Z,30.60
2018-09-27T14:22:29.519Z,30.60
2018-09-27T14:24:58.025Z,30.30
2018-09-27T14:27:26.432Z,29.80
2018-09-27T14:29:54.891Z,28.80
2018-09-27T14:32:23.519Z,28.40
2018-09-27T14:34:51.898Z,27.90
2018-09-27T14:37:20.346Z,27.40
2018-09-27T14:39:48.773Z,27.00
2018-09-27T14:42:17.237Z,27.60
2018-09-27T14:44:45.664Z,27.30
2018-09-27T14:47:14.123Z,26.80
2018-09-27T14:49:42.527Z,26.90
2018-09-27T14:52:10.938Z,27.70
2018-09-27T14:54:39.392Z,27.20
2018-09-27T14:57:07.808Z,27.20
2018-09-27T14:59:36.310Z,27.40
2018-09-27T15:02:04.740Z,27.40
2018-09-27T15:04:33.181Z,27.10
2018-09-27T15:07:01.601Z,26.20
2018-09-27T15:09:30.140Z,25.50
2018-09-27T15:11:58.534Z,25.10
2018-09-27T15:14:27.058Z,24.90
2018-09-27T15:16:55.445Z,24.80
2018-09-27T15:19:24.222Z,24.50
2018-09-27T15:21:52.654Z,24.50
2018-09-27T15:24:21.103Z,24.40
2018-09-27T15:26:49.522Z,23.80
2018-09-27T15:29:17.975Z,23.80
2018-09-27T15:31:46.398Z,23.70
2018-09-27T15:34:14.847Z,23.40
2018-09-27T15:36:43.281Z,23.30
2018-09-27T15:39:11.736Z,22.90
2018-09-27T15:41:40.158Z,22.80
2018-09-27T15:44:08.610Z,22.70
2018-09-27T15:46:37.030Z,22.60
2018-09-27T15:49:05.502Z,22.50
2018-09-27T15:51:33.982Z,22.50
2018-09-27T15:54:02.370Z,22.50
2018-09-27T15:56:30.794Z,22.40
2018-09-27T15:58:59.351Z,22.30
2018-09-27T16:01:27.795Z,22.30
2018-09-27T16:03:56.242Z,22.20
2018-09-27T16:06:24.674Z,22.10
2018-09-27T16:08:53.119Z,21.90
2018-09-27T16:11:21.554Z,21.90
2018-09-27T16:13:50.010Z,21.70
2018-09-27T16:16:18.472Z,21.70
2018-09-27T16:18:46.938Z,21.60
2018-09-27T16:21:15.401Z,21.50
2018-09-27T16:23:43.911Z,21.40
2018-09-27T16:26:12.318Z,21.20
2018-09-27T16:28:40.778Z,21.10
2018-09-27T16:31:09.234Z,21.00
2018-09-27T16:33:37.673Z,20.80
2018-09-27T16:36:06.323Z,20.60
2018-09-27T16:38:34.773Z,20.60
2018-09-27T16:41:03.238Z,20.40
2018-09-27T16:43:31.693Z,20.20
2018-09-27T16:46:00.162Z,20.00
2018-09-27T16:48:28.610Z,19.70
2018-09-27T16:50:57.070Z,19.40
2018-09-27T16:53:25.525Z,19.20
2018-09-27T16:55:54.007Z,19.00
2018-09-27T16:58:22.545Z,18.90
2018-09-27T17:00:51.228Z,18.80
2018-09-27T17:03:19.669Z,18.60
2018-09-27T17:05:48.130Z,18.50
2018-09-27T17:08:16.588Z,18.30
2018-09-27T17:10:45.068Z,18.20
2018-09-27T17:13:13.599Z,18.10
2018-09-27T17:15:41.991Z,18.00
2018-09-27T17:18:10.455Z,17.90
2018-09-27T17:20:38.937Z,17.80
2018-09-27T17:23:07.382Z,17.70
2018-09-27T17:25:35.850Z,17.50
2018-09-27T17:28:04.310Z,17.40
2018-09-27T17:30:32.766Z,17.30
2018-09-27T17:33:01.282Z,17.10
2018-09-27T17:35:29.766Z,17.00
2018-09-27T17:37:58.206Z,16.80
2018-09-27T17:40:26.760Z,16.70
2018-09-27T17:42:55.204Z,16.60
2018-09-27T17:45:23.671Z,16.50
2018-09-27T17:47:52.151Z,16.40
2018-09-27T17:50:20.623Z,16.40
2018-09-27T17:52:49.111Z,16.30
2018-09-27T17:55:17.557Z,16.20
2018-09-27T17:57:46.016Z,16.00
2018-09-27T18:00:14.438Z,15.90
2018-09-27T18:02:42.892Z,15.70
2018-09-27T18:05:18.984Z,15.60
2018-09-27T18:07:39.797Z,15.60
2018-09-27T18:10:08.245Z,15.50
2018-09-27T18:12:36.694Z,15.50
2018-09-27T18:15:05.312Z,15.40
2018-09-27T18:17:33.812Z,15.30
2018-09-27T18:20:02.237Z,15.20
2018-09-27T18:22:30.715Z,15.10
2018-09-27T18:24:59.118Z,15.00
2018-09-27T18:27:27.570Z,14.90
2018-09-27T18:29:55.995Z,14.90
2018-09-27T18:32:24.505Z,14.80
2018-09-27T18:34:52.954Z,14.70
2018-09-27T18:37:21.430Z,14.70
2018-09-27T18:39:49.878Z,14.60
2018-09-27T18:42:18.336Z,14.60
2018-09-27T18:44:46.767Z,14.50
2018-09-27T18:47:15.234Z,14.40
2018-09-27T18:49:43.669Z,14.30
2018-09-27T18:52:12.121Z,14.30
2018-09-27T18:54:40.560Z,14.20
2018-09-27T18:57:09.045Z,14.20
2018-09-27T18:59:37.487Z,14.10
2018-09-27T19:02:05.964Z,14.10
2018-09-27T19:04:34.422Z,14.00
2018-09-27T19:07:02.940Z,13.90
2018-09-27T19:09:31.354Z,13.80
2018-09-27T19:11:59.785Z,13.80
2018-09-27T19:14:28.197Z,13.70
2018-09-27T19:16:56.749Z,13.60
2018-09-27T19:19:25.182Z,13.60
2018-09-27T19:21:53.641Z,13.60
2018-09-27T19:24:22.086Z,13.50
2018-09-27T19:26:50.507Z,13.50
2018-09-27T19:29:18.962Z,13.40
2018-09-27T19:31:47.434Z,13.30
2018-09-27T19:34:15.895Z,13.20
2018-09-27T19:36:44.334Z,13.20
2018-09-27T19:39:12.844Z,13.10
2018-09-27T19:41:41.309Z,13.00
2018-09-27T19:44:09.771Z,12.80
2018-09-27T19:46:38.279Z,12.80
2018-09-27T19:49:06.719Z,12.80
2018-09-27T19:51:35.154Z,12.90
2018-09-27T19:54:03.626Z,13.00
2018-09-27T19:56:32.082Z,13.00
2018-09-27T19:59:00.534Z,13.10
2018-09-27T20:01:28.982Z,13.00
2018-09-27T20:03:57.481Z,13.00
2018-09-27T20:06:25.870Z,12.80
2018-09-27T20:08:54.417Z,12.70
2018-09-27T20:11:23.468Z,12.60
2018-09-27T20:13:52.093Z,12.60
2018-09-27T20:16:21.597Z,12.50
2018-09-27T20:18:51.445Z,12.50
2018-09-27T20:21:21.539Z,12.40
2018-09-27T20:23:51.266Z,12.40
2018-09-27T20:26:19.805Z,12.40
2018-09-27T20:28:49.390Z,12.40
2018-09-27T20:31:17.796Z,12.40
2018-09-27T20:33:46.758Z,12.40
2018-09-27T20:36:16.570Z,12.30
2018-09-27T20:38:45.335Z,12.30
2018-09-27T20:41:14.075Z,12.30
2018-09-27T20:43:42.835Z,12.20
2018-09-27T20:46:11.355Z,12.20
2018-09-27T20:48:39.825Z,12.20
2018-09-27T20:51:08.291Z,12.10
2018-09-27T20:53:36.742Z,12.00
2018-09-27T20:56:05.206Z,12.00
2018-09-27T20:58:33.682Z,12.00
2018-09-27T21:01:02.125Z,11.90
2018-09-27T21:03:30.612Z,11.90
2018-09-27T21:05:59.043Z,11.80
2018-09-27T21:08:27.477Z,11.80
2018-09-27T21:10:55.935Z,11.80
2018-09-27T21:13:24.337Z,11.80
2018-09-27T21:15:52.782Z,11.80
2018-09-27T21:18:21.241Z,11.70
2018-09-27T21:20:49.714Z,11.60
2018-09-27T21:23:18.153Z,11.60
2018-09-27T21:25:46.618Z,11.60
2018-09-27T21:28:15.054Z,11.60
2018-09-27T21:30:43.520Z,11.50
2018-09-27T21:33:11.962Z,11.50
2018-09-27T21:35:40.417Z,11.50
2018-09-27T21:38:08.866Z,11.40
2018-09-27T21:40:37.369Z,11.40
2018-09-27T21:43:05.915Z,11.40
2018-09-27T21:45:34.410Z,11.40
2018-09-27T21:48:02.875Z,11.40
2018-09-27T21:50:31.439Z,11.30
2018-09-27T21:52:59.814Z,11.20
2018-09-27T21:55:28.262Z,11.10
2018-09-27T21:57:56.709Z,11.10
2018-09-27T22:00:25.206Z,11.10
2018-09-27T22:02:53.661Z,11.10
2018-09-27T22:05:22.122Z,11.10
2018-09-27T22:07:50.565Z,11.10
2018-09-27T22:10:19.049Z,11.10
2018-09-27T22:12:47.513Z,11.20
2018-09-27T22:15:15.982Z,11.20
2018-09-27T22:17:44.426Z,11.20
2018-09-27T22:20:12.882Z,11.10
2018-09-27T22:22:41.312Z,11.10
2018-09-27T22:25:09.776Z,11.10
2018-09-27T22:27:38.217Z,11.00
2018-09-27T22:30:07.495Z,11.00
2018-09-27T22:32:35.918Z,11.00
2018-09-27T22:35:04.427Z,10.90
2018-09-27T22:37:32.865Z,10.90
2018-09-27T22:40:01.328Z,10.90
2018-09-27T22:42:29.749Z,10.90
2018-09-27T22:44:58.174Z,10.80
2018-09-27T22:47:26.626Z,10.80
2018-09-27T22:49:55.042Z,10.70
2018-09-27T22:52:23.507Z,10.80
2018-09-27T22:54:51.946Z,10.70
2018-09-27T22:57:20.399Z,10.70
2018-09-27T22:59:48.865Z,10.60
2018-09-27T23:02:17.357Z,10.50
2018-09-27T23:04:45.781Z,10.60
2018-09-27T23:07:14.247Z,10.50
2018-09-27T23:09:42.686Z,10.50
2018-09-27T23:12:11.147Z,10.60
2018-09-27T23:14:39.597Z,10.60
2018-09-27T23:17:08.074Z,10.50
2018-09-27T23:19:36.518Z,10.50
2018-09-27T23:22:05.054Z,10.50
2018-09-27T23:24:33.477Z,10.50
2018-09-27T23:27:01.925Z,10.40
2018-09-27T23:29:30.365Z,10.40
2018-09-27T23:31:58.842Z,10.30
2018-09-27T23:34:27.279Z,10.30
2018-09-27T23:36:55.733Z,10.30
2018-09-27T23:39:24.145Z,10.20
2018-09-27T23:41:52.630Z,10.20
2018-09-27T23:44:21.053Z,10.20
2018-09-27T23:46:49.506Z,10.10
2018-09-27T23:49:17.930Z,10.10
2018-09-27T23:51:46.386Z,10.10
2018-09-27T23:54:14.813Z,10.00
2018-09-27T23:56:43.279Z,9.90
2018-09-27T23:59:11.715Z,10.00
